Lulea, Sweden

11:39 AM CEST on April 27, 2017 (GMT +0200)
Luleå | | Change Station

Elev 0 ft 65.57 °N, 22.12 °E | Updated 5 minutes ago

Mostly Cloudy
Mostly Cloudy
35.6 °F
Feels Like 30 °F
N
7.5
Wind Variable Wind from North
Gusts 13.0 mph

Today
High -- | Low -- °F
--% Chance of Precip.
Yesterday
High -- | Low -- °F
Precip. -- in
Pressure 29.65 in
Visibility 6.2 miles
Clouds Mostly Cloudy 3000 ft
Windchill 30 °F
Dew Point 25 °F
Humidity 66%
Rainfall Not available.
Snow Depth Not available.
4:07 AM 8:53 PM
New Moon, 1% visible
METAR ESPA 270920Z 35009KT 320V020 9999 BKN030 01/M04 Q1004
Pressure 29.65 in
Visibility 6.2 miles
Clouds Mostly Cloudy 3000 ft
Windchill 30 °F
Dew Point 25 °F
Humidity 66%
Rainfall Not available.
Snow Depth Not available.
4:07 AM 8:53 PM
New Moon, 1% visible
METAR ESPA 270920Z 35009KT 320V020 9999 BKN030 01/M04 Q1004

Get Severe Weather Alerts

Thanks for signing up!

Be on the lookout for a verification email in your inbox.

You'll start receiving the daily forecast at 8 AM.

×

10-Day Weather Forecast

×

Almanac

Astronomy

Apr. 27, 2017 Rise Set
Actual Time
Civil Twilight
Nautical Twilight
Astronomical Twilight
Moon
Length of Visible Light
Length of Day
Tomorrow will be .
, % of the Moon is Illuminated

Today's Extremes

Country Highs Country Lows

Community

WunderPhotos

WunderBlog® & News

Nearby

Air Quality

  Air Quality AQ Index Pollutant
Not available.

Snow Depth

Station Depth Elevation

Earthquake Activity

City Distance Mag. Time & Date
Minimum magnitude displayed is 2.5.

Coastal Water Temperatures

Place Temperature

Stations

Nearby Weather Stations

Station Location Temp. Windchill Dew Point Humidity Wind Precip. Elev Updated Type